logo
Search for airport 
image banner adimage banner adimage banner ad
image banner ad

SEKL - Silok

Located in La Concordia, Ecuador, Ecuador

ICAO - , IATA -

Data provided by Airmate  

General information

Coordinates: S0°1'51" W79°21'59"
Elevation is 702 feet MSL.
Magnetic variation is -4° East
View others Airports in Esmeraldas

Operational data

Special qualification required
Current time UTC:
Current local time:
Weather at : - ( 0 km )
METAR: ZMUB 301900Z VRB02MPS CAVOK 03/01 Q1021 NOSIG
View NOTAMs / SUP AIP / TFR affecting this airport [VIEW]
Communications frequencies: [VIEW]

Runways:

RWY identifierQFULength (ft)Width (ft)SurfaceLDA (ft)
28279°231441ASPH
1099°231441ASPH

Airport contact information

Address: La Concordia, Ecuador Ecuador

Satellite view of SEKL